sensor_id;sensor_type;location;lat;lon;timestamp;P1;durP1;ratioP1;P2;durP2;ratioP2
66256;SDS011;53049;43.446;3.698;2024-01-30T00:02:16;17.30;;;8.80;;
66256;SDS011;53049;43.446;3.698;2024-01-30T00:04:42;18.65;;;8.73;;
66256;SDS011;53049;43.446;3.698;2024-01-30T00:07:07;23.27;;;8.93;;
66256;SDS011;53049;43.446;3.698;2024-01-30T00:09:33;14.80;;;8.85;;
66256;SDS011;53049;43.446;3.698;2024-01-30T00:11:59;17.77;;;8.80;;
66256;SDS011;53049;43.446;3.698;2024-01-30T00:14:25;16.63;;;9.48;;
66256;SDS011;53049;43.446;3.698;2024-01-30T00:16:51;14.13;;;8.57;;
66256;SDS011;53049;43.446;3.698;2024-01-30T00:19:17;15.32;;;8.52;;
66256;SDS011;53049;43.446;3.698;2024-01-30T00:21:42;15.07;;;7.93;;
66256;SDS011;53049;43.446;3.698;2024-01-30T00:24:08;19.92;;;9.23;;
66256;SDS011;53049;43.446;3.698;2024-01-30T00:26:34;16.00;;;8.98;;
66256;SDS011;53049;43.446;3.698;2024-01-30T00:29:00;14.48;;;9.10;;
66256;SDS011;53049;43.446;3.698;2024-01-30T00:31:26;15.13;;;8.57;;
66256;SDS011;53049;43.446;3.698;2024-01-30T00:33:53;16.52;;;8.30;;
66256;SDS011;53049;43.446;3.698;2024-01-30T00:36:19;13.95;;;8.25;;
66256;SDS011;53049;43.446;3.698;2024-01-30T00:38:45;12.55;;;8.23;;
66256;SDS011;53049;43.446;3.698;2024-01-30T00:41:10;15.32;;;8.52;;
66256;SDS011;53049;43.446;3.698;2024-01-30T00:43:36;11.27;;;7.95;;
66256;SDS011;53049;43.446;3.698;2024-01-30T00:46:02;19.92;;;8.85;;
66256;SDS011;53049;43.446;3.698;2024-01-30T00:48:28;10.73;;;7.55;;
66256;SDS011;53049;43.446;3.698;2024-01-30T00:50:54;16.70;;;8.88;;
66256;SDS011;53049;43.446;3.698;2024-01-30T00:53:19;18.42;;;8.95;;
66256;SDS011;53049;43.446;3.698;2024-01-30T00:55:45;14.73;;;8.45;;
66256;SDS011;53049;43.446;3.698;2024-01-30T00:58:11;14.27;;;8.85;;
66256;SDS011;53049;43.446;3.698;2024-01-30T01:00:36;14.65;;;8.23;;
66256;SDS011;53049;43.446;3.698;2024-01-30T01:03:02;15.80;;;8.50;;
66256;SDS011;53049;43.446;3.698;2024-01-30T01:05:28;14.05;;;8.50;;
66256;SDS011;53049;43.446;3.698;2024-01-30T01:07:54;16.50;;;8.77;;
66256;SDS011;53049;43.446;3.698;2024-01-30T01:10:20;13.52;;;8.63;;
66256;SDS011;53049;43.446;3.698;2024-01-30T01:12:45;15.05;;;8.52;;
66256;SDS011;53049;43.446;3.698;2024-01-30T01:15:11;12.50;;;7.93;;
66256;SDS011;53049;43.446;3.698;2024-01-30T01:17:37;16.75;;;8.77;;
66256;SDS011;53049;43.446;3.698;2024-01-30T01:20:04;15.00;;;8.70;;
66256;SDS011;53049;43.446;3.698;2024-01-30T01:22:31;21.40;;;8.95;;
66256;SDS011;53049;43.446;3.698;2024-01-30T01:24:57;14.05;;;9.10;;
66256;SDS011;53049;43.446;3.698;2024-01-30T01:27:23;16.60;;;9.13;;
66256;SDS011;53049;43.446;3.698;2024-01-30T01:29:49;16.30;;;8.10;;
66256;SDS011;53049;43.446;3.698;2024-01-30T01:32:14;12.07;;;8.35;;
66256;SDS011;53049;43.446;3.698;2024-01-30T01:34:40;17.73;;;8.20;;
66256;SDS011;53049;43.446;3.698;2024-01-30T01:37:06;16.85;;;9.13;;
66256;SDS011;53049;43.446;3.698;2024-01-30T01:39:32;15.70;;;8.63;;
66256;SDS011;53049;43.446;3.698;2024-01-30T01:41:58;15.15;;;8.77;;
66256;SDS011;53049;43.446;3.698;2024-01-30T01:44:25;19.60;;;9.63;;
66256;SDS011;53049;43.446;3.698;2024-01-30T01:46:51;14.85;;;8.68;;
66256;SDS011;53049;43.446;3.698;2024-01-30T01:49:18;16.50;;;8.68;;
66256;SDS011;53049;43.446;3.698;2024-01-30T01:51:45;15.02;;;8.52;;
66256;SDS011;53049;43.446;3.698;2024-01-30T01:54:13;18.35;;;8.48;;
66256;SDS011;53049;43.446;3.698;2024-01-30T01:56:41;18.77;;;8.23;;
66256;SDS011;53049;43.446;3.698;2024-01-30T01:59:08;14.63;;;9.10;;
66256;SDS011;53049;43.446;3.698;2024-01-30T02:01:34;19.38;;;8.30;;
66256;SDS011;53049;43.446;3.698;2024-01-30T02:04:03;15.40;;;8.70;;
66256;SDS011;53049;43.446;3.698;2024-01-30T02:06:30;14.68;;;9.15;;
66256;SDS011;53049;43.446;3.698;2024-01-30T02:08:56;19.58;;;9.60;;
66256;SDS011;53049;43.446;3.698;2024-01-30T02:11:22;14.15;;;8.93;;
66256;SDS011;53049;43.446;3.698;2024-01-30T02:13:49;23.92;;;9.65;;
66256;SDS011;53049;43.446;3.698;2024-01-30T02:16:15;15.38;;;8.38;;
66256;SDS011;53049;43.446;3.698;2024-01-30T02:18:44;13.65;;;7.90;;
66256;SDS011;53049;43.446;3.698;2024-01-30T02:21:12;13.65;;;8.98;;
66256;SDS011;53049;43.446;3.698;2024-01-30T02:23:41;14.88;;;8.40;;
66256;SDS011;53049;43.446;3.698;2024-01-30T02:26:09;14.60;;;8.73;;
66256;SDS011;53049;43.446;3.698;2024-01-30T02:28:36;17.42;;;9.77;;
66256;SDS011;53049;43.446;3.698;2024-01-30T02:31:01;15.30;;;9.68;;
66256;SDS011;53049;43.446;3.698;2024-01-30T02:33:27;18.52;;;9.88;;
66256;SDS011;53049;43.446;3.698;2024-01-30T02:35:53;14.77;;;9.38;;
66256;SDS011;53049;43.446;3.698;2024-01-30T02:38:19;16.58;;;10.13;;
66256;SDS011;53049;43.446;3.698;2024-01-30T02:40:44;20.25;;;9.77;;
66256;SDS011;53049;43.446;3.698;2024-01-30T02:43:10;17.27;;;10.32;;
66256;SDS011;53049;43.446;3.698;2024-01-30T02:45:35;20.00;;;10.27;;
66256;SDS011;53049;43.446;3.698;2024-01-30T02:48:01;19.08;;;10.63;;
66256;SDS011;53049;43.446;3.698;2024-01-30T02:50:27;17.33;;;11.05;;
66256;SDS011;53049;43.446;3.698;2024-01-30T02:52:53;16.98;;;10.73;;
66256;SDS011;53049;43.446;3.698;2024-01-30T02:55:18;17.33;;;10.55;;
66256;SDS011;53049;43.446;3.698;2024-01-30T02:57:44;18.35;;;10.13;;
66256;SDS011;53049;43.446;3.698;2024-01-30T03:00:10;18.00;;;10.63;;
66256;SDS011;53049;43.446;3.698;2024-01-30T03:02:36;20.13;;;10.88;;
66256;SDS011;53049;43.446;3.698;2024-01-30T03:05:02;15.70;;;10.23;;
66256;SDS011;53049;43.446;3.698;2024-01-30T03:07:29;16.38;;;10.10;;
66256;SDS011;53049;43.446;3.698;2024-01-30T03:09:54;15.48;;;10.10;;
66256;SDS011;53049;43.446;3.698;2024-01-30T03:12:20;16.83;;;9.27;;
66256;SDS011;53049;43.446;3.698;2024-01-30T03:14:46;19.23;;;11.20;;
66256;SDS011;53049;43.446;3.698;2024-01-30T03:17:12;19.95;;;11.07;;
66256;SDS011;53049;43.446;3.698;2024-01-30T03:19:38;16.23;;;10.25;;
66256;SDS011;53049;43.446;3.698;2024-01-30T03:22:04;19.08;;;10.90;;
66256;SDS011;53049;43.446;3.698;2024-01-30T03:24:30;15.23;;;10.65;;
66256;SDS011;53049;43.446;3.698;2024-01-30T03:26:55;17.52;;;10.30;;
66256;SDS011;53049;43.446;3.698;2024-01-30T03:29:21;19.35;;;10.88;;
66256;SDS011;53049;43.446;3.698;2024-01-30T03:31:47;18.65;;;11.57;;
66256;SDS011;53049;43.446;3.698;2024-01-30T03:34:12;18.05;;;10.93;;
66256;SDS011;53049;43.446;3.698;2024-01-30T03:36:38;18.65;;;10.80;;
66256;SDS011;53049;43.446;3.698;2024-01-30T03:39:04;15.20;;;10.77;;
66256;SDS011;53049;43.446;3.698;2024-01-30T03:41:29;18.95;;;11.35;;
66256;SDS011;53049;43.446;3.698;2024-01-30T03:43:55;16.92;;;12.18;;
66256;SDS011;53049;43.446;3.698;2024-01-30T03:46:21;19.10;;;11.88;;
66256;SDS011;53049;43.446;3.698;2024-01-30T03:48:46;17.92;;;11.38;;
66256;SDS011;53049;43.446;3.698;2024-01-30T03:51:12;17.13;;;11.50;;
66256;SDS011;53049;43.446;3.698;2024-01-30T03:53:42;17.25;;;11.38;;
66256;SDS011;53049;43.446;3.698;2024-01-30T03:56:08;19.42;;;12.55;;
66256;SDS011;53049;43.446;3.698;2024-01-30T03:58:34;20.67;;;12.48;;
66256;SDS011;53049;43.446;3.698;2024-01-30T04:01:01;18.08;;;12.23;;
66256;SDS011;53049;43.446;3.698;2024-01-30T04:03:26;20.73;;;12.25;;
66256;SDS011;53049;43.446;3.698;2024-01-30T04:05:52;20.42;;;13.63;;
66256;SDS011;53049;43.446;3.698;2024-01-30T04:08:18;20.48;;;12.80;;
66256;SDS011;53049;43.446;3.698;2024-01-30T04:10:44;23.05;;;13.50;;
66256;SDS011;53049;43.446;3.698;2024-01-30T04:13:11;16.83;;;12.32;;
66256;SDS011;53049;43.446;3.698;2024-01-30T04:15:37;21.08;;;14.27;;
66256;SDS011;53049;43.446;3.698;2024-01-30T04:18:03;18.00;;;13.20;;
66256;SDS011;53049;43.446;3.698;2024-01-30T04:20:29;20.00;;;14.00;;
66256;SDS011;53049;43.446;3.698;2024-01-30T04:22:55;23.30;;;13.75;;
66256;SDS011;53049;43.446;3.698;2024-01-30T04:25:21;22.13;;;14.32;;
66256;SDS011;53049;43.446;3.698;2024-01-30T04:27:46;22.00;;;14.55;;
66256;SDS011;53049;43.446;3.698;2024-01-30T04:30:13;22.52;;;15.23;;
66256;SDS011;53049;43.446;3.698;2024-01-30T04:32:38;19.63;;;15.00;;
66256;SDS011;53049;43.446;3.698;2024-01-30T04:35:04;18.30;;;14.20;;
66256;SDS011;53049;43.446;3.698;2024-01-30T04:37:30;21.73;;;14.75;;
66256;SDS011;53049;43.446;3.698;2024-01-30T04:39:56;20.42;;;14.75;;
66256;SDS011;53049;43.446;3.698;2024-01-30T04:42:22;22.90;;;15.00;;
66256;SDS011;53049;43.446;3.698;2024-01-30T04:44:47;23.55;;;15.45;;
66256;SDS011;53049;43.446;3.698;2024-01-30T04:47:14;24.65;;;14.80;;
66256;SDS011;53049;43.446;3.698;2024-01-30T04:49:40;24.15;;;14.88;;
66256;SDS011;53049;43.446;3.698;2024-01-30T04:52:07;21.77;;;15.27;;
66256;SDS011;53049;43.446;3.698;2024-01-30T04:54:33;20.90;;;15.30;;
66256;SDS011;53049;43.446;3.698;2024-01-30T04:57:00;24.50;;;15.63;;
66256;SDS011;53049;43.446;3.698;2024-01-30T04:59:26;23.33;;;15.18;;
66256;SDS011;53049;43.446;3.698;2024-01-30T05:01:52;23.00;;;15.63;;
66256;SDS011;53049;43.446;3.698;2024-01-30T05:04:17;21.45;;;15.07;;
66256;SDS011;53049;43.446;3.698;2024-01-30T05:06:43;23.98;;;15.60;;
66256;SDS011;53049;43.446;3.698;2024-01-30T05:09:09;20.42;;;15.88;;
66256;SDS011;53049;43.446;3.698;2024-01-30T05:11:40;19.10;;;15.32;;
66256;SDS011;53049;43.446;3.698;2024-01-30T05:14:06;23.27;;;15.40;;
66256;SDS011;53049;43.446;3.698;2024-01-30T05:16:34;21.75;;;14.75;;
66256;SDS011;53049;43.446;3.698;2024-01-30T05:19:00;20.08;;;14.15;;
66256;SDS011;53049;43.446;3.698;2024-01-30T05:21:26;19.33;;;14.15;;
66256;SDS011;53049;43.446;3.698;2024-01-30T05:23:51;24.10;;;14.90;;
66256;SDS011;53049;43.446;3.698;2024-01-30T05:26:17;22.02;;;14.15;;
66256;SDS011;53049;43.446;3.698;2024-01-30T05:28:43;21.42;;;14.57;;
66256;SDS011;53049;43.446;3.698;2024-01-30T05:31:11;21.63;;;14.10;;
66256;SDS011;53049;43.446;3.698;2024-01-30T05:33:37;21.60;;;13.82;;
66256;SDS011;53049;43.446;3.698;2024-01-30T05:36:03;20.48;;;12.43;;
66256;SDS011;53049;43.446;3.698;2024-01-30T05:38:29;20.20;;;13.48;;
66256;SDS011;53049;43.446;3.698;2024-01-30T05:40:55;19.88;;;12.60;;
66256;SDS011;53049;43.446;3.698;2024-01-30T05:43:23;20.60;;;13.57;;
66256;SDS011;53049;43.446;3.698;2024-01-30T05:45:49;21.75;;;13.10;;
66256;SDS011;53049;43.446;3.698;2024-01-30T05:48:15;18.45;;;13.65;;
66256;SDS011;53049;43.446;3.698;2024-01-30T05:50:41;19.67;;;14.15;;
66256;SDS011;53049;43.446;3.698;2024-01-30T05:53:06;18.92;;;13.95;;
66256;SDS011;53049;43.446;3.698;2024-01-30T05:55:32;22.92;;;13.35;;
66256;SDS011;53049;43.446;3.698;2024-01-30T05:57:58;22.15;;;13.68;;
66256;SDS011;53049;43.446;3.698;2024-01-30T06:00:23;21.13;;;13.55;;
66256;SDS011;53049;43.446;3.698;2024-01-30T06:02:49;18.58;;;13.10;;
66256;SDS011;53049;43.446;3.698;2024-01-30T06:05:15;18.90;;;12.73;;
66256;SDS011;53049;43.446;3.698;2024-01-30T06:07:40;21.38;;;13.27;;
66256;SDS011;53049;43.446;3.698;2024-01-30T06:10:06;20.27;;;12.82;;
66256;SDS011;53049;43.446;3.698;2024-01-30T06:12:34;19.85;;;13.77;;
66256;SDS011;53049;43.446;3.698;2024-01-30T06:15:00;18.63;;;12.75;;
66256;SDS011;53049;43.446;3.698;2024-01-30T06:17:26;17.80;;;12.43;;
66256;SDS011;53049;43.446;3.698;2024-01-30T06:19:52;20.92;;;13.13;;
66256;SDS011;53049;43.446;3.698;2024-01-30T06:22:17;18.40;;;13.35;;
66256;SDS011;53049;43.446;3.698;2024-01-30T06:24:43;21.23;;;13.52;;
66256;SDS011;53049;43.446;3.698;2024-01-30T06:27:15;24.52;;;15.43;;
66256;SDS011;53049;43.446;3.698;2024-01-30T06:29:42;25.27;;;15.32;;
66256;SDS011;53049;43.446;3.698;2024-01-30T06:32:08;21.40;;;15.57;;
66256;SDS011;53049;43.446;3.698;2024-01-30T06:34:34;23.92;;;16.02;;
66256;SDS011;53049;43.446;3.698;2024-01-30T06:36:59;25.13;;;16.67;;
66256;SDS011;53049;43.446;3.698;2024-01-30T06:39:26;24.15;;;14.63;;
66256;SDS011;53049;43.446;3.698;2024-01-30T06:41:52;23.58;;;14.93;;
66256;SDS011;53049;43.446;3.698;2024-01-30T06:44:17;24.23;;;16.23;;
66256;SDS011;53049;43.446;3.698;2024-01-30T06:46:43;23.75;;;15.50;;
66256;SDS011;53049;43.446;3.698;2024-01-30T06:49:09;27.63;;;15.95;;
66256;SDS011;53049;43.446;3.698;2024-01-30T06:51:34;28.23;;;15.07;;
66256;SDS011;53049;43.446;3.698;2024-01-30T06:54:00;29.95;;;16.08;;
66256;SDS011;53049;43.446;3.698;2024-01-30T06:56:26;24.80;;;15.82;;
66256;SDS011;53049;43.446;3.698;2024-01-30T06:58:51;27.05;;;16.67;;
66256;SDS011;53049;43.446;3.698;2024-01-30T07:01:17;26.25;;;16.00;;
66256;SDS011;53049;43.446;3.698;2024-01-30T07:03:43;23.30;;;16.23;;
66256;SDS011;53049;43.446;3.698;2024-01-30T07:06:09;22.98;;;16.20;;
66256;SDS011;53049;43.446;3.698;2024-01-30T07:08:36;24.88;;;15.55;;
66256;SDS011;53049;43.446;3.698;2024-01-30T07:11:04;23.15;;;15.07;;
66256;SDS011;53049;43.446;3.698;2024-01-30T07:13:30;21.65;;;15.82;;
66256;SDS011;53049;43.446;3.698;2024-01-30T07:15:56;24.83;;;16.27;;
66256;SDS011;53049;43.446;3.698;2024-01-30T07:18:22;21.58;;;15.10;;
66256;SDS011;53049;43.446;3.698;2024-01-30T07:20:48;26.15;;;15.90;;
66256;SDS011;53049;43.446;3.698;2024-01-30T07:23:16;22.58;;;15.77;;
66256;SDS011;53049;43.446;3.698;2024-01-30T07:25:45;24.58;;;15.82;;
66256;SDS011;53049;43.446;3.698;2024-01-30T07:28:13;23.60;;;15.65;;
66256;SDS011;53049;43.446;3.698;2024-01-30T07:30:42;24.52;;;15.38;;
66256;SDS011;53049;43.446;3.698;2024-01-30T07:33:08;23.42;;;16.17;;
66256;SDS011;53049;43.446;3.698;2024-01-30T07:35:34;23.70;;;15.73;;
66256;SDS011;53049;43.446;3.698;2024-01-30T07:38:00;22.77;;;16.25;;
66256;SDS011;53049;43.446;3.698;2024-01-30T07:40:26;22.65;;;15.68;;
66256;SDS011;53049;43.446;3.698;2024-01-30T07:42:53;23.33;;;16.00;;
66256;SDS011;53049;43.446;3.698;2024-01-30T07:45:19;22.77;;;15.68;;
66256;SDS011;53049;43.446;3.698;2024-01-30T07:47:49;27.98;;;16.17;;
66256;SDS011;53049;43.446;3.698;2024-01-30T07:50:15;23.77;;;16.42;;
66256;SDS011;53049;43.446;3.698;2024-01-30T07:52:41;22.60;;;16.50;;
66256;SDS011;53049;43.446;3.698;2024-01-30T07:55:07;23.95;;;15.68;;
66256;SDS011;53049;43.446;3.698;2024-01-30T07:57:33;24.25;;;16.50;;
66256;SDS011;53049;43.446;3.698;2024-01-30T08:00:00;27.55;;;16.85;;
66256;SDS011;53049;43.446;3.698;2024-01-30T08:02:26;23.20;;;16.30;;
66256;SDS011;53049;43.446;3.698;2024-01-30T08:04:51;22.92;;;15.63;;
66256;SDS011;53049;43.446;3.698;2024-01-30T08:07:17;25.83;;;15.90;;
66256;SDS011;53049;43.446;3.698;2024-01-30T08:09:46;22.42;;;15.35;;
66256;SDS011;53049;43.446;3.698;2024-01-30T08:12:11;24.00;;;15.27;;
66256;SDS011;53049;43.446;3.698;2024-01-30T08:14:38;26.67;;;16.55;;
66256;SDS011;53049;43.446;3.698;2024-01-30T08:17:04;25.38;;;16.92;;
66256;SDS011;53049;43.446;3.698;2024-01-30T08:19:32;23.10;;;16.17;;
66256;SDS011;53049;43.446;3.698;2024-01-30T08:21:58;27.45;;;18.23;;
66256;SDS011;53049;43.446;3.698;2024-01-30T08:24:24;27.25;;;17.38;;
66256;SDS011;53049;43.446;3.698;2024-01-30T08:26:49;26.90;;;17.95;;
66256;SDS011;53049;43.446;3.698;2024-01-30T08:29:15;24.10;;;16.48;;
66256;SDS011;53049;43.446;3.698;2024-01-30T08:31:41;24.73;;;16.67;;
66256;SDS011;53049;43.446;3.698;2024-01-30T08:34:06;23.73;;;16.85;;
66256;SDS011;53049;43.446;3.698;2024-01-30T08:36:32;25.33;;;17.30;;
66256;SDS011;53049;43.446;3.698;2024-01-30T08:38:58;26.10;;;17.92;;
66256;SDS011;53049;43.446;3.698;2024-01-30T08:41:23;25.92;;;17.55;;
66256;SDS011;53049;43.446;3.698;2024-01-30T08:43:49;25.50;;;17.20;;
66256;SDS011;53049;43.446;3.698;2024-01-30T08:46:18;31.70;;;17.33;;
66256;SDS011;53049;43.446;3.698;2024-01-30T08:48:44;21.55;;;15.90;;
66256;SDS011;53049;43.446;3.698;2024-01-30T08:51:11;25.00;;;17.88;;
66256;SDS011;53049;43.446;3.698;2024-01-30T08:53:37;28.63;;;16.83;;
66256;SDS011;53049;43.446;3.698;2024-01-30T08:56:03;25.15;;;15.85;;
66256;SDS011;53049;43.446;3.698;2024-01-30T08:58:29;21.52;;;15.05;;
66256;SDS011;53049;43.446;3.698;2024-01-30T09:00:55;22.75;;;14.18;;
66256;SDS011;53049;43.446;3.698;2024-01-30T09:03:21;23.30;;;15.90;;
66256;SDS011;53049;43.446;3.698;2024-01-30T09:05:47;24.55;;;16.00;;
66256;SDS011;53049;43.446;3.698;2024-01-30T09:08:12;22.80;;;15.82;;
66256;SDS011;53049;43.446;3.698;2024-01-30T09:10:38;20.10;;;13.43;;
66256;SDS011;53049;43.446;3.698;2024-01-30T09:13:04;18.13;;;10.23;;
66256;SDS011;53049;43.446;3.698;2024-01-30T09:15:29;15.38;;;9.63;;
66256;SDS011;53049;43.446;3.698;2024-01-30T09:17:55;27.08;;;13.85;;
66256;SDS011;53049;43.446;3.698;2024-01-30T09:20:21;19.67;;;12.48;;
66256;SDS011;53049;43.446;3.698;2024-01-30T09:22:48;18.27;;;9.82;;
66256;SDS011;53049;43.446;3.698;2024-01-30T09:25:14;18.95;;;9.93;;
66256;SDS011;53049;43.446;3.698;2024-01-30T09:27:40;16.40;;;9.20;;
66256;SDS011;53049;43.446;3.698;2024-01-30T09:30:06;17.80;;;8.95;;
66256;SDS011;53049;43.446;3.698;2024-01-30T09:32:32;14.60;;;9.23;;
66256;SDS011;53049;43.446;3.698;2024-01-30T09:34:58;14.48;;;9.02;;
66256;SDS011;53049;43.446;3.698;2024-01-30T09:37:23;14.23;;;8.20;;
66256;SDS011;53049;43.446;3.698;2024-01-30T09:39:49;15.80;;;8.85;;
66256;SDS011;53049;43.446;3.698;2024-01-30T09:44:50;13.23;;;8.65;;
66256;SDS011;53049;43.446;3.698;2024-01-30T09:47:19;15.00;;;8.98;;
66256;SDS011;53049;43.446;3.698;2024-01-30T09:49:45;14.43;;;8.00;;
66256;SDS011;53049;43.446;3.698;2024-01-30T09:52:11;15.52;;;9.18;;
66256;SDS011;53049;43.446;3.698;2024-01-30T09:54:37;17.80;;;8.88;;
66256;SDS011;53049;43.446;3.698;2024-01-30T09:57:04;16.13;;;9.63;;
66256;SDS011;53049;43.446;3.698;2024-01-30T09:59:30;17.05;;;9.25;;
66256;SDS011;53049;43.446;3.698;2024-01-30T10:01:57;16.55;;;9.60;;
66256;SDS011;53049;43.446;3.698;2024-01-30T10:04:22;17.95;;;9.20;;
66256;SDS011;53049;43.446;3.698;2024-01-30T10:06:48;18.38;;;10.13;;
66256;SDS011;53049;43.446;3.698;2024-01-30T10:09:15;16.98;;;10.15;;
66256;SDS011;53049;43.446;3.698;2024-01-30T10:11:41;16.02;;;9.95;;
66256;SDS011;53049;43.446;3.698;2024-01-30T10:14:07;16.88;;;9.90;;
66256;SDS011;53049;43.446;3.698;2024-01-30T10:16:34;14.63;;;9.90;;
66256;SDS011;53049;43.446;3.698;2024-01-30T10:18:59;16.58;;;9.52;;
66256;SDS011;53049;43.446;3.698;2024-01-30T10:21:25;15.98;;;9.88;;
66256;SDS011;53049;43.446;3.698;2024-01-30T10:23:51;16.00;;;9.80;;
66256;SDS011;53049;43.446;3.698;2024-01-30T10:26:17;17.20;;;10.32;;
66256;SDS011;53049;43.446;3.698;2024-01-30T10:28:43;15.95;;;8.70;;
66256;SDS011;53049;43.446;3.698;2024-01-30T10:31:08;14.68;;;8.95;;
66256;SDS011;53049;43.446;3.698;2024-01-30T10:33:34;16.00;;;9.50;;
66256;SDS011;53049;43.446;3.698;2024-01-30T10:36:01;15.35;;;9.32;;
66256;SDS011;53049;43.446;3.698;2024-01-30T10:38:28;13.82;;;8.70;;
66256;SDS011;53049;43.446;3.698;2024-01-30T10:40:58;13.27;;;8.77;;
66256;SDS011;53049;43.446;3.698;2024-01-30T10:43:33;14.13;;;8.63;;
66256;SDS011;53049;43.446;3.698;2024-01-30T10:46:07;14.15;;;8.55;;
66256;SDS011;53049;43.446;3.698;2024-01-30T10:48:36;14.93;;;8.80;;
66256;SDS011;53049;43.446;3.698;2024-01-30T10:51:07;14.50;;;9.18;;
66256;SDS011;53049;43.446;3.698;2024-01-30T10:53:37;16.50;;;9.60;;
66256;SDS011;53049;43.446;3.698;2024-01-30T10:56:03;13.98;;;9.60;;
66256;SDS011;53049;43.446;3.698;2024-01-30T10:58:30;18.42;;;8.75;;
66256;SDS011;53049;43.446;3.698;2024-01-30T11:00:56;14.30;;;9.18;;
66256;SDS011;53049;43.446;3.698;2024-01-30T11:03:23;17.27;;;10.07;;
66256;SDS011;53049;43.446;3.698;2024-01-30T11:05:52;15.98;;;8.65;;
66256;SDS011;53049;43.446;3.698;2024-01-30T11:08:26;14.48;;;9.00;;
66256;SDS011;53049;43.446;3.698;2024-01-30T11:10:56;12.23;;;9.00;;
66256;SDS011;53049;43.446;3.698;2024-01-30T11:13:31;14.88;;;9.30;;
66256;SDS011;53049;43.446;3.698;2024-01-30T11:16:03;16.35;;;9.13;;
66256;SDS011;53049;43.446;3.698;2024-01-30T11:18:30;17.35;;;9.27;;
66256;SDS011;53049;43.446;3.698;2024-01-30T11:20:57;16.20;;;8.75;;
66256;SDS011;53049;43.446;3.698;2024-01-30T11:23:23;14.77;;;8.52;;
66256;SDS011;53049;43.446;3.698;2024-01-30T11:25:52;13.38;;;8.02;;
66256;SDS011;53049;43.446;3.698;2024-01-30T11:28:18;17.02;;;8.50;;
66256;SDS011;53049;43.446;3.698;2024-01-30T11:30:44;13.27;;;7.93;;
66256;SDS011;53049;43.446;3.698;2024-01-30T11:33:13;14.25;;;8.45;;
66256;SDS011;53049;43.446;3.698;2024-01-30T11:35:42;14.18;;;7.97;;
66256;SDS011;53049;43.446;3.698;2024-01-30T11:38:10;17.65;;;8.23;;
66256;SDS011;53049;43.446;3.698;2024-01-30T11:40:38;12.35;;;7.95;;
66256;SDS011;53049;43.446;3.698;2024-01-30T11:43:05;14.73;;;8.68;;
66256;SDS011;53049;43.446;3.698;2024-01-30T11:45:32;14.93;;;8.57;;
66256;SDS011;53049;43.446;3.698;2024-01-30T11:47:59;14.43;;;8.38;;
66256;SDS011;53049;43.446;3.698;2024-01-30T11:50:28;14.15;;;8.55;;
66256;SDS011;53049;43.446;3.698;2024-01-30T11:53:00;13.18;;;9.18;;
66256;SDS011;53049;43.446;3.698;2024-01-30T11:55:26;13.27;;;7.65;;
66256;SDS011;53049;43.446;3.698;2024-01-30T11:57:57;10.68;;;8.05;;
66256;SDS011;53049;43.446;3.698;2024-01-30T12:00:23;13.93;;;8.40;;
66256;SDS011;53049;43.446;3.698;2024-01-30T12:02:52;14.95;;;9.07;;
66256;SDS011;53049;43.446;3.698;2024-01-30T12:05:23;15.20;;;8.20;;
66256;SDS011;53049;43.446;3.698;2024-01-30T12:07:49;11.77;;;8.05;;
66256;SDS011;53049;43.446;3.698;2024-01-30T12:10:16;12.65;;;8.40;;
66256;SDS011;53049;43.446;3.698;2024-01-30T12:12:44;13.88;;;8.38;;
66256;SDS011;53049;43.446;3.698;2024-01-30T12:15:14;13.32;;;7.53;;
66256;SDS011;53049;43.446;3.698;2024-01-30T12:17:40;15.55;;;8.63;;
66256;SDS011;53049;43.446;3.698;2024-01-30T12:22:36;15.23;;;8.05;;
66256;SDS011;53049;43.446;3.698;2024-01-30T12:25:04;11.77;;;7.70;;
66256;SDS011;53049;43.446;3.698;2024-01-30T12:27:33;15.30;;;7.57;;
66256;SDS011;53049;43.446;3.698;2024-01-30T12:29:59;15.10;;;10.40;;
66256;SDS011;53049;43.446;3.698;2024-01-30T12:32:25;15.73;;;10.40;;
66256;SDS011;53049;43.446;3.698;2024-01-30T12:34:54;12.18;;;8.45;;
66256;SDS011;53049;43.446;3.698;2024-01-30T12:37:21;17.02;;;8.85;;
66256;SDS011;53049;43.446;3.698;2024-01-30T12:39:49;12.55;;;7.70;;
66256;SDS011;53049;43.446;3.698;2024-01-30T12:42:16;12.15;;;7.63;;
66256;SDS011;53049;43.446;3.698;2024-01-30T12:44:42;13.13;;;8.05;;
66256;SDS011;53049;43.446;3.698;2024-01-30T12:47:08;11.57;;;6.97;;
66256;SDS011;53049;43.446;3.698;2024-01-30T12:49:38;12.65;;;7.70;;
66256;SDS011;53049;43.446;3.698;2024-01-30T12:52:03;13.75;;;7.97;;
66256;SDS011;53049;43.446;3.698;2024-01-30T12:54:30;17.08;;;10.10;;
66256;SDS011;53049;43.446;3.698;2024-01-30T12:56:55;11.20;;;8.20;;
66256;SDS011;53049;43.446;3.698;2024-01-30T12:59:21;13.10;;;8.43;;
66256;SDS011;53049;43.446;3.698;2024-01-30T13:01:48;14.70;;;7.68;;
66256;SDS011;53049;43.446;3.698;2024-01-30T13:04:13;13.02;;;8.00;;
66256;SDS011;53049;43.446;3.698;2024-01-30T13:06:40;15.63;;;7.07;;
66256;SDS011;53049;43.446;3.698;2024-01-30T13:09:06;10.95;;;6.95;;
66256;SDS011;53049;43.446;3.698;2024-01-30T13:11:32;12.18;;;7.03;;
66256;SDS011;53049;43.446;3.698;2024-01-30T13:13:59;12.20;;;6.57;;
66256;SDS011;53049;43.446;3.698;2024-01-30T13:16:25;11.60;;;6.78;;
66256;SDS011;53049;43.446;3.698;2024-01-30T13:18:50;12.70;;;6.53;;
66256;SDS011;53049;43.446;3.698;2024-01-30T13:21:16;13.55;;;7.15;;
66256;SDS011;53049;43.446;3.698;2024-01-30T13:23:42;12.70;;;6.93;;
66256;SDS011;53049;43.446;3.698;2024-01-30T13:26:08;10.18;;;6.15;;
66256;SDS011;53049;43.446;3.698;2024-01-30T13:28:34;11.20;;;5.80;;
66256;SDS011;53049;43.446;3.698;2024-01-30T13:30:59;10.02;;;6.53;;
66256;SDS011;53049;43.446;3.698;2024-01-30T13:33:26;12.63;;;6.57;;
66256;SDS011;53049;43.446;3.698;2024-01-30T13:35:51;10.82;;;6.13;;
66256;SDS011;53049;43.446;3.698;2024-01-30T13:38:17;10.18;;;5.95;;
66256;SDS011;53049;43.446;3.698;2024-01-30T13:40:43;10.00;;;5.90;;
66256;SDS011;53049;43.446;3.698;2024-01-30T13:43:08;7.20;;;5.10;;
66256;SDS011;53049;43.446;3.698;2024-01-30T13:45:34;11.27;;;5.57;;
66256;SDS011;53049;43.446;3.698;2024-01-30T13:48:00;10.02;;;6.07;;
66256;SDS011;53049;43.446;3.698;2024-01-30T13:50:26;8.45;;;5.90;;
66256;SDS011;53049;43.446;3.698;2024-01-30T13:52:52;10.18;;;5.15;;
66256;SDS011;53049;43.446;3.698;2024-01-30T13:55:17;7.93;;;4.93;;
66256;SDS011;53049;43.446;3.698;2024-01-30T13:57:43;10.43;;;5.10;;
66256;SDS011;53049;43.446;3.698;2024-01-30T14:00:09;10.63;;;4.82;;
66256;SDS011;53049;43.446;3.698;2024-01-30T14:02:35;10.45;;;5.07;;
66256;SDS011;53049;43.446;3.698;2024-01-30T14:05:01;8.18;;;4.63;;
66256;SDS011;53049;43.446;3.698;2024-01-30T14:07:26;7.95;;;4.90;;
66256;SDS011;53049;43.446;3.698;2024-01-30T14:09:52;9.60;;;4.97;;
66256;SDS011;53049;43.446;3.698;2024-01-30T14:12:18;7.57;;;4.70;;
66256;SDS011;53049;43.446;3.698;2024-01-30T14:14:43;11.82;;;4.78;;
66256;SDS011;53049;43.446;3.698;2024-01-30T14:17:09;7.60;;;4.65;;
66256;SDS011;53049;43.446;3.698;2024-01-30T14:19:35;10.38;;;4.10;;
66256;SDS011;53049;43.446;3.698;2024-01-30T14:22:01;8.13;;;4.40;;
66256;SDS011;53049;43.446;3.698;2024-01-30T14:24:27;8.60;;;4.20;;
66256;SDS011;53049;43.446;3.698;2024-01-30T14:26:52;9.38;;;4.80;;
66256;SDS011;53049;43.446;3.698;2024-01-30T14:29:18;9.23;;;4.47;;